sensor_id;sensor_type;location;lat;lon;timestamp;pressure;altitude;pressure_sealevel;temperature;humidity
13235;BME280;6683;48.506;9.050;2024-02-23T00:02:52;96216.69;;;9.58;60.94
13235;BME280;6683;48.506;9.050;2024-02-23T00:05:54;96209.81;;;9.57;61.38
13235;BME280;6683;48.506;9.050;2024-02-23T00:08:56;96211.06;;;9.54;61.39
13235;BME280;6683;48.506;9.050;2024-02-23T00:11:58;96225.84;;;9.55;61.60
13235;BME280;6683;48.506;9.050;2024-02-23T00:15:00;96242.44;;;9.56;61.37
13235;BME280;6683;48.506;9.050;2024-02-23T00:18:04;96243.50;;;9.55;61.69
13235;BME280;6683;48.506;9.050;2024-02-23T00:21:07;96238.44;;;9.53;61.35
13235;BME280;6683;48.506;9.050;2024-02-23T00:24:09;96248.19;;;9.53;61.39
13235;BME280;6683;48.506;9.050;2024-02-23T00:27:11;96263.63;;;9.49;61.41
13235;BME280;6683;48.506;9.050;2024-02-23T00:30:14;96270.16;;;9.47;61.61
13235;BME280;6683;48.506;9.050;2024-02-23T00:33:17;96268.97;;;9.43;61.65
13235;BME280;6683;48.506;9.050;2024-02-23T00:36:20;96280.78;;;9.40;61.66
13235;BME280;6683;48.506;9.050;2024-02-23T00:39:22;96284.66;;;9.38;61.91
13235;BME280;6683;48.506;9.050;2024-02-23T00:42:24;96277.00;;;9.36;61.46
13235;BME280;6683;48.506;9.050;2024-02-23T00:45:26;96275.63;;;9.34;61.44
13235;BME280;6683;48.506;9.050;2024-02-23T00:48:29;96285.00;;;9.30;61.68
13235;BME280;6683;48.506;9.050;2024-02-23T00:51:31;96274.09;;;9.26;61.73
13235;BME280;6683;48.506;9.050;2024-02-23T00:54:33;96291.16;;;9.24;61.74
13235;BME280;6683;48.506;9.050;2024-02-23T00:57:35;96296.84;;;9.21;61.51
13235;BME280;6683;48.506;9.050;2024-02-23T01:00:37;96293.28;;;9.15;61.61
13235;BME280;6683;48.506;9.050;2024-02-23T01:03:41;96296.59;;;9.11;61.53
13235;BME280;6683;48.506;9.050;2024-02-23T01:06:43;96290.75;;;9.09;61.84
13235;BME280;6683;48.506;9.050;2024-02-23T01:09:45;96282.50;;;9.05;61.63
13235;BME280;6683;48.506;9.050;2024-02-23T01:12:47;96272.19;;;9.04;61.72
13235;BME280;6683;48.506;9.050;2024-02-23T01:15:49;96278.69;;;9.01;61.71
13235;BME280;6683;48.506;9.050;2024-02-23T01:18:52;96292.06;;;9.00;61.95
13235;BME280;6683;48.506;9.050;2024-02-23T01:21:54;96291.28;;;8.99;61.84
13235;BME280;6683;48.506;9.050;2024-02-23T01:25:00;96309.34;;;8.96;61.67
13235;BME280;6683;48.506;9.050;2024-02-23T01:28:02;96297.66;;;8.92;61.80
13235;BME280;6683;48.506;9.050;2024-02-23T01:31:04;96291.47;;;8.86;61.53
13235;BME280;6683;48.506;9.050;2024-02-23T01:34:09;96302.19;;;8.84;61.75
13235;BME280;6683;48.506;9.050;2024-02-23T01:37:11;96303.44;;;8.82;61.68
13235;BME280;6683;48.506;9.050;2024-02-23T01:40:14;96316.22;;;8.78;61.81
13235;BME280;6683;48.506;9.050;2024-02-23T01:43:16;96308.22;;;8.73;61.90
13235;BME280;6683;48.506;9.050;2024-02-23T01:46:18;96309.22;;;8.72;62.05
13235;BME280;6683;48.506;9.050;2024-02-23T01:54:27;96309.97;;;8.61;61.90
13235;BME280;6683;48.506;9.050;2024-02-23T01:57:30;96296.25;;;8.59;61.88
13235;BME280;6683;48.506;9.050;2024-02-23T02:00:35;96294.84;;;8.57;62.13
13235;BME280;6683;48.506;9.050;2024-02-23T02:08:24;96315.97;;;8.50;61.99
13235;BME280;6683;48.506;9.050;2024-02-23T02:11:47;96319.00;;;8.47;62.26
13235;BME280;6683;48.506;9.050;2024-02-23T02:14:49;96317.19;;;8.48;62.03
13235;BME280;6683;48.506;9.050;2024-02-23T02:17:51;96316.38;;;8.47;62.08
13235;BME280;6683;48.506;9.050;2024-02-23T02:20:55;96305.09;;;8.47;62.12
13235;BME280;6683;48.506;9.050;2024-02-23T02:23:58;96316.38;;;8.47;62.27
13235;BME280;6683;48.506;9.050;2024-02-23T02:27:02;96316.38;;;8.47;62.17
13235;BME280;6683;48.506;9.050;2024-02-23T02:30:05;96311.94;;;8.48;62.21
13235;BME280;6683;48.506;9.050;2024-02-23T02:33:08;96307.47;;;8.48;62.18
13235;BME280;6683;48.506;9.050;2024-02-23T02:36:10;96303.03;;;8.49;62.16
13235;BME280;6683;48.506;9.050;2024-02-23T02:39:12;96300.84;;;8.46;61.96
13235;BME280;6683;48.506;9.050;2024-02-23T02:42:16;96315.00;;;8.45;62.19
13235;BME280;6683;48.506;9.050;2024-02-23T02:45:18;96304.69;;;8.43;62.12
13235;BME280;6683;48.506;9.050;2024-02-23T02:48:20;96309.16;;;8.43;62.19
13235;BME280;6683;48.506;9.050;2024-02-23T02:51:22;96310.41;;;8.40;62.18
13235;BME280;6683;48.506;9.050;2024-02-23T02:54:24;96300.09;;;8.39;62.27
13235;BME280;6683;48.506;9.050;2024-02-23T02:57:27;96294.47;;;8.35;62.23
13235;BME280;6683;48.506;9.050;2024-02-23T03:00:30;96289.44;;;8.34;62.13
13235;BME280;6683;48.506;9.050;2024-02-23T03:03:32;96291.50;;;8.32;62.09
13235;BME280;6683;48.506;9.050;2024-02-23T03:06:34;96298.41;;;8.26;62.25
13235;BME280;6683;48.506;9.050;2024-02-23T03:09:36;96289.91;;;8.24;62.27
13235;BME280;6683;48.506;9.050;2024-02-23T03:12:40;96287.50;;;8.23;62.34
13235;BME280;6683;48.506;9.050;2024-02-23T03:15:42;96299.06;;;8.22;62.38
13235;BME280;6683;48.506;9.050;2024-02-23T03:18:44;96294.81;;;8.21;62.60
13235;BME280;6683;48.506;9.050;2024-02-23T03:21:47;96293.56;;;8.23;62.79
13235;BME280;6683;48.506;9.050;2024-02-23T03:24:49;96278.19;;;8.27;62.80
13235;BME280;6683;48.506;9.050;2024-02-23T03:27:53;96284.63;;;8.31;62.88
13235;BME280;6683;48.506;9.050;2024-02-23T03:30:55;96291.84;;;8.35;63.07
13235;BME280;6683;48.506;9.050;2024-02-23T03:33:57;96278.06;;;8.40;62.73
13235;BME280;6683;48.506;9.050;2024-02-23T03:36:59;96296.63;;;8.45;62.96
13235;BME280;6683;48.506;9.050;2024-02-23T03:40:04;96302.47;;;8.47;62.90
13235;BME280;6683;48.506;9.050;2024-02-23T03:43:07;96318.59;;;8.50;63.03
13235;BME280;6683;48.506;9.050;2024-02-23T03:46:10;96321.56;;;8.54;62.98
13235;BME280;6683;48.506;9.050;2024-02-23T03:49:12;96316.09;;;8.55;62.40
13235;BME280;6683;48.506;9.050;2024-02-23T03:52:14;96305.13;;;8.58;62.79
13235;BME280;6683;48.506;9.050;2024-02-23T03:55:17;96300.47;;;8.60;62.74
13235;BME280;6683;48.506;9.050;2024-02-23T03:58:20;96296.00;;;8.61;62.61
13235;BME280;6683;48.506;9.050;2024-02-23T04:01:22;96304.50;;;8.63;62.84
13235;BME280;6683;48.506;9.050;2024-02-23T04:04:24;96306.66;;;8.66;62.56
13235;BME280;6683;48.506;9.050;2024-02-23T04:07:26;96310.09;;;8.66;62.38
13235;BME280;6683;48.506;9.050;2024-02-23T04:10:29;96298.78;;;8.66;62.50
13235;BME280;6683;48.506;9.050;2024-02-23T04:13:32;96316.41;;;8.65;62.51
13235;BME280;6683;48.506;9.050;2024-02-23T04:16:34;96312.50;;;8.68;62.41
13235;BME280;6683;48.506;9.050;2024-02-23T04:19:36;96303.84;;;8.67;62.45
13235;BME280;6683;48.506;9.050;2024-02-23T04:22:38;96303.84;;;8.67;62.16
13235;BME280;6683;48.506;9.050;2024-02-23T04:25:40;96277.53;;;8.67;62.36
13235;BME280;6683;48.506;9.050;2024-02-23T04:28:44;96274.09;;;8.67;62.24
13235;BME280;6683;48.506;9.050;2024-02-23T04:31:46;96291.69;;;8.66;62.19
13235;BME280;6683;48.506;9.050;2024-02-23T04:34:48;96283.00;;;8.66;62.03
13235;BME280;6683;48.506;9.050;2024-02-23T04:37:50;96267.22;;;8.66;62.20
13235;BME280;6683;48.506;9.050;2024-02-23T04:40:52;96274.09;;;8.67;62.01
13235;BME280;6683;48.506;9.050;2024-02-23T04:43:55;96272.47;;;8.66;61.89
13235;BME280;6683;48.506;9.050;2024-02-23T04:47:00;96273.94;;;8.62;61.74
13235;BME280;6683;48.506;9.050;2024-02-23T04:50:03;96271.53;;;8.60;61.62
13235;BME280;6683;48.506;9.050;2024-02-23T04:53:05;96264.31;;;8.56;61.64
13235;BME280;6683;48.506;9.050;2024-02-23T04:56:09;96262.91;;;8.53;61.64
13235;BME280;6683;48.506;9.050;2024-02-23T04:59:12;96265.41;;;8.48;61.48
13235;BME280;6683;48.506;9.050;2024-02-23T05:02:14;96271.09;;;8.45;61.60
13235;BME280;6683;48.506;9.050;2024-02-23T05:05:16;96271.19;;;8.39;61.69
13235;BME280;6683;48.506;9.050;2024-02-23T05:08:19;96270.81;;;8.35;61.82
13235;BME280;6683;48.506;9.050;2024-02-23T05:11:21;96281.34;;;8.35;61.92
13235;BME280;6683;48.506;9.050;2024-02-23T05:14:25;96280.16;;;8.31;61.79
13235;BME280;6683;48.506;9.050;2024-02-23T05:17:28;96285.06;;;8.28;62.08
13235;BME280;6683;48.506;9.050;2024-02-23T05:20:30;96291.31;;;8.27;61.88
13235;BME280;6683;48.506;9.050;2024-02-23T05:23:32;96286.50;;;8.24;61.76
13235;BME280;6683;48.506;9.050;2024-02-23T05:26:34;96296.63;;;8.20;61.84
13235;BME280;6683;48.506;9.050;2024-02-23T05:29:37;96301.75;;;8.15;61.78
13235;BME280;6683;48.506;9.050;2024-02-23T05:32:39;96305.00;;;8.11;61.58
13235;BME280;6683;48.506;9.050;2024-02-23T05:35:41;96297.56;;;8.07;61.79
13235;BME280;6683;48.506;9.050;2024-02-23T05:38:44;96297.59;;;8.01;61.81
13235;BME280;6683;48.506;9.050;2024-02-23T05:41:46;96301.50;;;7.98;61.94
13235;BME280;6683;48.506;9.050;2024-02-23T05:44:50;96304.53;;;7.95;62.02
13235;BME280;6683;48.506;9.050;2024-02-23T05:47:52;96308.41;;;7.93;62.08
13235;BME280;6683;48.506;9.050;2024-02-23T05:50:54;96308.03;;;7.89;61.99
13235;BME280;6683;48.506;9.050;2024-02-23T05:53:56;96316.13;;;7.88;62.08
13235;BME280;6683;48.506;9.050;2024-02-23T05:56:58;96321.81;;;7.85;62.26
13235;BME280;6683;48.506;9.050;2024-02-23T06:00:04;96321.81;;;7.85;62.29
13235;BME280;6683;48.506;9.050;2024-02-23T06:03:06;96319.75;;;7.87;62.36
13235;BME280;6683;48.506;9.050;2024-02-23T06:06:08;96336.69;;;7.91;62.49
13235;BME280;6683;48.506;9.050;2024-02-23T06:09:10;96345.16;;;7.93;62.47
13235;BME280;6683;48.506;9.050;2024-02-23T06:12:13;96356.50;;;7.93;62.39
13235;BME280;6683;48.506;9.050;2024-02-23T06:15:16;96357.06;;;7.95;62.38
13235;BME280;6683;48.506;9.050;2024-02-23T06:18:18;96344.31;;;7.99;62.40
13235;BME280;6683;48.506;9.050;2024-02-23T06:21:20;96343.47;;;8.05;62.41
13235;BME280;6683;48.506;9.050;2024-02-23T06:24:22;96352.53;;;8.09;62.26
13235;BME280;6683;48.506;9.050;2024-02-23T06:27:25;96345.22;;;8.11;62.23
13235;BME280;6683;48.506;9.050;2024-02-23T06:30:29;96342.75;;;8.16;62.28
13235;BME280;6683;48.506;9.050;2024-02-23T06:33:31;96339.69;;;8.19;61.98
13235;BME280;6683;48.506;9.050;2024-02-23T06:36:33;96348.38;;;8.20;61.88
13235;BME280;6683;48.506;9.050;2024-02-23T06:39:36;96343.34;;;8.18;61.84
13235;BME280;6683;48.506;9.050;2024-02-23T06:42:38;96339.31;;;8.16;61.93
13235;BME280;6683;48.506;9.050;2024-02-23T06:45:42;96335.09;;;8.15;61.91
13235;BME280;6683;48.506;9.050;2024-02-23T06:48:46;96322.19;;;8.13;61.95
13235;BME280;6683;48.506;9.050;2024-02-23T06:51:48;96323.19;;;8.12;61.89
13235;BME280;6683;48.506;9.050;2024-02-23T06:54:50;96322.59;;;8.10;61.88
13235;BME280;6683;48.506;9.050;2024-02-23T06:57:52;96318.78;;;8.06;61.75
13235;BME280;6683;48.506;9.050;2024-02-23T07:00:55;96323.69;;;8.02;61.76
13235;BME280;6683;48.506;9.050;2024-02-23T07:03:57;96334.38;;;8.01;61.82
13235;BME280;6683;48.506;9.050;2024-02-23T07:06:59;96339.63;;;8.01;61.90
13235;BME280;6683;48.506;9.050;2024-02-23T07:10:08;96339.84;;;7.99;61.84
13235;BME280;6683;48.506;9.050;2024-02-23T07:13:11;96346.75;;;8.00;61.87
13235;BME280;6683;48.506;9.050;2024-02-23T07:16:14;96346.94;;;7.99;61.87
13235;BME280;6683;48.506;9.050;2024-02-23T07:19:16;96345.13;;;7.99;61.86
13235;BME280;6683;48.506;9.050;2024-02-23T07:22:18;96342.50;;;7.99;61.91
13235;BME280;6683;48.506;9.050;2024-02-23T07:25:21;96348.34;;;8.01;62.01
13235;BME280;6683;48.506;9.050;2024-02-23T07:28:23;96350.75;;;8.03;61.93
13235;BME280;6683;48.506;9.050;2024-02-23T07:31:27;96352.13;;;8.05;61.95
13235;BME280;6683;48.506;9.050;2024-02-23T07:34:30;96354.13;;;8.10;61.96
13235;BME280;6683;48.506;9.050;2024-02-23T07:37:33;96353.47;;;8.15;61.92
13235;BME280;6683;48.506;9.050;2024-02-23T07:40:35;96365.16;;;8.19;61.88
13235;BME280;6683;48.506;9.050;2024-02-23T07:43:37;96366.56;;;8.21;61.88
13235;BME280;6683;48.506;9.050;2024-02-23T07:46:41;96366.13;;;8.24;61.78
13235;BME280;6683;48.506;9.050;2024-02-23T07:49:43;96371.78;;;8.28;61.92
13235;BME280;6683;48.506;9.050;2024-02-23T07:52:45;96372.16;;;8.31;61.77
13235;BME280;6683;48.506;9.050;2024-02-23T07:55:47;96369.09;;;8.34;61.72
13235;BME280;6683;48.506;9.050;2024-02-23T07:58:49;96357.34;;;8.37;61.72
13235;BME280;6683;48.506;9.050;2024-02-23T08:01:53;96352.88;;;8.37;61.52
13235;BME280;6683;48.506;9.050;2024-02-23T08:04:56;96346.03;;;8.36;61.66
13235;BME280;6683;48.506;9.050;2024-02-23T08:07:58;96346.03;;;8.36;61.56
13235;BME280;6683;48.506;9.050;2024-02-23T08:11:00;96350.91;;;8.33;61.42
13235;BME280;6683;48.506;9.050;2024-02-23T08:14:02;96356.97;;;8.33;61.59
13235;BME280;6683;48.506;9.050;2024-02-23T08:17:06;96352.53;;;8.34;61.31
13235;BME280;6683;48.506;9.050;2024-02-23T08:20:09;96357.78;;;8.34;61.34
13235;BME280;6683;48.506;9.050;2024-02-23T08:23:11;96368.06;;;8.35;61.33
13235;BME280;6683;48.506;9.050;2024-02-23T08:26:14;96365.22;;;8.37;61.40
13235;BME280;6683;48.506;9.050;2024-02-23T08:29:16;96367.44;;;8.40;61.39
13235;BME280;6683;48.506;9.050;2024-02-23T08:32:19;96384.78;;;8.41;61.53
13235;BME280;6683;48.506;9.050;2024-02-23T08:35:22;96386.41;;;8.42;61.42
13235;BME280;6683;48.506;9.050;2024-02-23T08:38:24;96390.44;;;8.44;61.71
13235;BME280;6683;48.506;9.050;2024-02-23T08:41:26;96393.19;;;8.49;61.72
13235;BME280;6683;48.506;9.050;2024-02-23T08:44:28;96389.94;;;8.54;61.65
13235;BME280;6683;48.506;9.050;2024-02-23T08:47:31;96394.75;;;8.57;61.49
13235;BME280;6683;48.506;9.050;2024-02-23T08:50:36;96380.38;;;8.59;61.73
13235;BME280;6683;48.506;9.050;2024-02-23T08:53:39;96383.38;;;8.63;61.53
13235;BME280;6683;48.506;9.050;2024-02-23T08:56:41;96376.06;;;8.65;61.45
13235;BME280;6683;48.506;9.050;2024-02-23T08:59:44;96376.44;;;8.68;61.42
13235;BME280;6683;48.506;9.050;2024-02-23T09:02:47;96379.41;;;8.72;61.45
13235;BME280;6683;48.506;9.050;2024-02-23T09:05:50;96379.34;;;8.78;61.34
13235;BME280;6683;48.506;9.050;2024-02-23T09:08:52;96364.72;;;8.82;61.34
13235;BME280;6683;48.506;9.050;2024-02-23T09:11:54;96367.53;;;8.88;61.24
13235;BME280;6683;48.506;9.050;2024-02-23T09:14:57;96370.88;;;8.95;61.05
13235;BME280;6683;48.506;9.050;2024-02-23T09:18:00;96362.31;;;8.99;60.92
13235;BME280;6683;48.506;9.050;2024-02-23T09:21:03;96372.19;;;9.04;60.94
13235;BME280;6683;48.506;9.050;2024-02-23T09:24:06;96377.81;;;9.07;60.83
13235;BME280;6683;48.506;9.050;2024-02-23T09:27:08;96368.47;;;9.11;60.82
13235;BME280;6683;48.506;9.050;2024-02-23T09:30:12;96374.41;;;9.18;60.85
13235;BME280;6683;48.506;9.050;2024-02-23T09:33:16;96367.59;;;9.29;60.70
13235;BME280;6683;48.506;9.050;2024-02-23T09:36:18;96368.25;;;9.42;60.74
13235;BME280;6683;48.506;9.050;2024-02-23T09:39:20;96370.81;;;9.60;60.59
13235;BME280;6683;48.506;9.050;2024-02-23T09:42:23;96369.38;;;9.76;60.27
13235;BME280;6683;48.506;9.050;2024-02-23T09:45:26;96376.75;;;9.97;60.09
13235;BME280;6683;48.506;9.050;2024-02-23T09:48:30;96377.38;;;10.22;60.12
13235;BME280;6683;48.506;9.050;2024-02-23T09:51:34;96367.31;;;10.42;59.17
13235;BME280;6683;48.506;9.050;2024-02-23T09:54:38;96366.38;;;10.60;59.45
13235;BME280;6683;48.506;9.050;2024-02-23T09:57:40;96368.66;;;10.80;58.83
13235;BME280;6683;48.506;9.050;2024-02-23T10:00:44;96363.78;;;11.00;58.51
13235;BME280;6683;48.506;9.050;2024-02-23T10:03:48;96370.31;;;11.09;58.21
13235;BME280;6683;48.506;9.050;2024-02-23T10:06:50;96372.25;;;11.13;58.03
13235;BME280;6683;48.506;9.050;2024-02-23T10:09:55;96380.94;;;11.14;57.44
13235;BME280;6683;48.506;9.050;2024-02-23T10:12:57;96375.66;;;11.14;57.20
13235;BME280;6683;48.506;9.050;2024-02-23T10:15:59;96391.06;;;11.17;57.63
13235;BME280;6683;48.506;9.050;2024-02-23T10:19:03;96382.34;;;11.16;56.92
13235;BME280;6683;48.506;9.050;2024-02-23T10:22:05;96381.88;;;11.19;57.06
13235;BME280;6683;48.506;9.050;2024-02-23T10:25:10;96380.03;;;11.20;56.94
13235;BME280;6683;48.506;9.050;2024-02-23T10:28:12;96378.66;;;11.17;56.51
13235;BME280;6683;48.506;9.050;2024-02-23T10:31:14;96383.03;;;11.12;56.54
13235;BME280;6683;48.506;9.050;2024-02-23T10:34:19;96370.31;;;11.09;56.32
13235;BME280;6683;48.506;9.050;2024-02-23T10:37:23;96369.50;;;11.08;56.18
13235;BME280;6683;48.506;9.050;2024-02-23T10:40:25;96378.22;;;11.09;56.45
13235;BME280;6683;48.506;9.050;2024-02-23T10:43:40;96381.13;;;11.07;56.14
13235;BME280;6683;48.506;9.050;2024-02-23T10:46:43;96376.16;;;11.11;56.27
13235;BME280;6683;48.506;9.050;2024-02-23T10:49:47;96374.19;;;11.18;56.09
13235;BME280;6683;48.506;9.050;2024-02-23T10:52:49;96376.22;;;11.27;55.76
13235;BME280;6683;48.506;9.050;2024-02-23T10:55:56;96368.63;;;11.31;55.93
13235;BME280;6683;48.506;9.050;2024-02-23T10:58:59;96365.78;;;11.33;55.62
13235;BME280;6683;48.506;9.050;2024-02-23T11:02:01;96358.63;;;11.33;55.59
13235;BME280;6683;48.506;9.050;2024-02-23T11:05:06;96357.34;;;11.36;55.75
13235;BME280;6683;48.506;9.050;2024-02-23T11:08:10;96354.47;;;11.37;55.34
13235;BME280;6683;48.506;9.050;2024-02-23T11:11:12;96358.16;;;11.36;55.47
13235;BME280;6683;48.506;9.050;2024-02-23T11:14:15;96357.34;;;11.36;55.28
13235;BME280;6683;48.506;9.050;2024-02-23T11:17:19;96354.72;;;11.36;55.10
13235;BME280;6683;48.506;9.050;2024-02-23T11:20:23;96355.78;;;11.35;54.89
13235;BME280;6683;48.506;9.050;2024-02-23T11:23:26;96352.88;;;11.36;54.83
13235;BME280;6683;48.506;9.050;2024-02-23T11:26:28;96339.69;;;11.36;54.74
13235;BME280;6683;48.506;9.050;2024-02-23T11:29:30;96331.81;;;11.41;54.79
13235;BME280;6683;48.506;9.050;2024-02-23T11:32:38;96341.13;;;11.44;54.88
13235;BME280;6683;48.506;9.050;2024-02-23T11:35:47;96343.06;;;11.48;55.09
13235;BME280;6683;48.506;9.050;2024-02-23T11:38:52;96345.56;;;11.55;54.84
13235;BME280;6683;48.506;9.050;2024-02-23T11:41:55;96335.31;;;11.58;54.60
13235;BME280;6683;48.506;9.050;2024-02-23T11:45:00;96336.94;;;11.59;54.10
13235;BME280;6683;48.506;9.050;2024-02-23T11:48:04;96340.38;;;11.60;54.19
13235;BME280;6683;48.506;9.050;2024-02-23T11:51:09;96340.13;;;11.61;54.30
13235;BME280;6683;48.506;9.050;2024-02-23T11:54:11;96340.13;;;11.61;53.90
13235;BME280;6683;48.506;9.050;2024-02-23T11:57:13;96341.97;;;11.61;53.70
13235;BME280;6683;48.506;9.050;2024-02-23T12:00:17;96338.19;;;11.57;53.93
13235;BME280;6683;48.506;9.050;2024-02-23T12:03:19;96335.31;;;11.58;53.98
13235;BME280;6683;48.506;9.050;2024-02-23T12:06:22;96331.88;;;11.58;53.64
13235;BME280;6683;48.506;9.050;2024-02-23T12:09:25;96327.88;;;11.55;53.53
13235;BME280;6683;48.506;9.050;2024-02-23T12:12:27;96329.97;;;11.53;53.92
13235;BME280;6683;48.506;9.050;2024-02-23T12:15:29;96319.38;;;11.53;53.66
13235;BME280;6683;48.506;9.050;2024-02-23T12:18:33;96311.69;;;11.52;53.81
13235;BME280;6683;48.506;9.050;2024-02-23T12:21:37;96312.50;;;11.52;53.62
13235;BME280;6683;48.506;9.050;2024-02-23T12:24:40;96310.41;;;11.54;53.71
13235;BME280;6683;48.506;9.050;2024-02-23T12:27:43;96301.47;;;11.55;53.47
13235;BME280;6683;48.506;9.050;2024-02-23T12:30:45;96307.88;;;11.59;53.61
13235;BME280;6683;48.506;9.050;2024-02-23T12:33:48;96307.94;;;11.64;54.06
13235;BME280;6683;48.506;9.050;2024-02-23T12:36:51;96311.03;;;11.73;54.14
13235;BME280;6683;48.506;9.050;2024-02-23T12:39:53;96314.31;;;11.80;53.94
13235;BME280;6683;48.506;9.050;2024-02-23T12:42:55;96312.31;;;11.87;54.00
13235;BME280;6683;48.506;9.050;2024-02-23T12:45:58;96303.59;;;11.86;53.44
13235;BME280;6683;48.506;9.050;2024-02-23T12:49:02;96304.72;;;11.90;54.14
13235;BME280;6683;48.506;9.050;2024-02-23T12:52:06;96303.19;;;11.94;53.95
13235;BME280;6683;48.506;9.050;2024-02-23T12:55:08;96304.56;;;11.97;53.66
13235;BME280;6683;48.506;9.050;2024-02-23T12:58:10;96306.94;;;11.98;53.50
13235;BME280;6683;48.506;9.050;2024-02-23T13:01:13;96308.06;;;12.02;53.71
13235;BME280;6683;48.506;9.050;2024-02-23T13:04:15;96310.25;;;12.06;53.58
13235;BME280;6683;48.506;9.050;2024-02-23T13:07:18;96307.09;;;12.09;53.66
13235;BME280;6683;48.506;9.050;2024-02-23T13:10:20;96308.22;;;12.13;53.67
13235;BME280;6683;48.506;9.050;2024-02-23T13:13:23;96304.53;;;12.14;53.19
13235;BME280;6683;48.506;9.050;2024-02-23T13:16:25;96298.19;;;12.15;53.33
13235;BME280;6683;48.506;9.050;2024-02-23T13:19:27;96302.47;;;12.16;53.45
13235;BME280;6683;48.506;9.050;2024-02-23T13:22:30;96299.81;;;12.16;53.33
13235;BME280;6683;48.506;9.050;2024-02-23T13:25:32;96305.41;;;12.19;53.51
13235;BME280;6683;48.506;9.050;2024-02-23T13:28:35;96300.94;;;12.20;53.31
13235;BME280;6683;48.506;9.050;2024-02-23T13:31:37;96293.25;;;12.18;52.93
13235;BME280;6683;48.506;9.050;2024-02-23T13:34:40;96281.78;;;12.13;52.73
13235;BME280;6683;48.506;9.050;2024-02-23T13:37:43;96281.72;;;12.08;53.21
13235;BME280;6683;48.506;9.050;2024-02-23T13:40:45;96279.06;;;12.08;52.76
13235;BME280;6683;48.506;9.050;2024-02-23T13:43:50;96262.16;;;12.09;52.72
13235;BME280;6683;48.506;9.050;2024-02-23T13:46:52;96260.31;;;12.09;52.72
13235;BME280;6683;48.506;9.050;2024-02-23T13:49:54;96260.56;;;12.08;52.63
13235;BME280;6683;48.506;9.050;2024-02-23T13:52:58;96257.09;;;12.07;52.84
13235;BME280;6683;48.506;9.050;2024-02-23T13:56:00;96255.03;;;12.09;52.56
13235;BME280;6683;48.506;9.050;2024-02-23T13:59:02;96250.53;;;12.10;52.47
13235;BME280;6683;48.506;9.050;2024-02-23T14:02:05;96250.84;;;12.13;52.88
13235;BME280;6683;48.506;9.050;2024-02-23T14:05:08;96238.75;;;12.17;52.95
13235;BME280;6683;48.506;9.050;2024-02-23T14:08:12;96237.44;;;12.20;52.63
13235;BME280;6683;48.506;9.050;2024-02-23T14:11:14;96236.72;;;12.24;52.89
13235;BME280;6683;48.506;9.050;2024-02-23T14:14:16;96238.41;;;12.30;52.61
13235;BME280;6683;48.506;9.050;2024-02-23T14:17:18;96243.19;;;12.33;52.48
13235;BME280;6683;48.506;9.050;2024-02-23T14:20:20;96247.44;;;12.34;52.70
13235;BME280;6683;48.506;9.050;2024-02-23T14:23:24;96247.75;;;12.38;52.35
13235;BME280;6683;48.506;9.050;2024-02-23T14:26:26;96247.25;;;12.41;52.65
13235;BME280;6683;48.506;9.050;2024-02-23T14:29:29;96233.78;;;12.42;52.53
13235;BME280;6683;48.506;9.050;2024-02-23T14:32:31;96232.50;;;12.45;52.44
13235;BME280;6683;48.506;9.050;2024-02-23T14:35:33;96219.09;;;12.51;52.65
13235;BME280;6683;48.506;9.050;2024-02-23T14:38:36;96214.09;;;12.55;52.29
13235;BME280;6683;48.506;9.050;2024-02-23T14:41:39;96212.28;;;12.60;52.35
13235;BME280;6683;48.506;9.050;2024-02-23T14:44:41;96211.56;;;12.65;52.15
13235;BME280;6683;48.506;9.050;2024-02-23T14:47:43;96211.84;;;12.68;52.08
13235;BME280;6683;48.506;9.050;2024-02-23T14:50:45;96214.31;;;12.75;51.85
13235;BME280;6683;48.506;9.050;2024-02-23T14:53:49;96216.47;;;12.78;51.50
13235;BME280;6683;48.506;9.050;2024-02-23T14:56:51;96216.75;;;12.76;51.26
13235;BME280;6683;48.506;9.050;2024-02-23T14:59:53;96221.47;;;12.74;51.22
13235;BME280;6683;48.506;9.050;2024-02-23T15:02:55;96222.78;;;12.72;51.14
13235;BME280;6683;48.506;9.050;2024-02-23T15:05:57;96214.50;;;12.68;50.87
13235;BME280;6683;48.506;9.050;2024-02-23T15:09:01;96216.59;;;12.66;50.89
13235;BME280;6683;48.506;9.050;2024-02-23T15:12:05;96211.84;;;12.68;50.81
13235;BME280;6683;48.506;9.050;2024-02-23T15:15:08;96191.75;;;12.67;50.97
13235;BME280;6683;48.506;9.050;2024-02-23T15:18:11;96202.88;;;12.69;50.92
13235;BME280;6683;48.506;9.050;2024-02-23T15:21:13;96196.78;;;12.69;50.69
13235;BME280;6683;48.506;9.050;2024-02-23T15:24:17;96196.22;;;12.67;50.91
13235;BME280;6683;48.506;9.050;2024-02-23T15:27:20;96206.25;;;12.65;50.62
13235;BME280;6683;48.506;9.050;2024-02-23T15:30:22;96189.28;;;12.61;50.47
13235;BME280;6683;48.506;9.050;2024-02-23T15:33:24;96196.69;;;12.59;50.54
13235;BME280;6683;48.506;9.050;2024-02-23T15:36:26;96196.38;;;12.55;50.42
13235;BME280;6683;48.506;9.050;2024-02-23T15:39:30;96185.78;;;12.55;50.59
13235;BME280;6683;48.506;9.050;2024-02-23T15:42:32;96190.28;;;12.55;50.25
13235;BME280;6683;48.506;9.050;2024-02-23T15:45:36;96190.75;;;12.52;50.45
13235;BME280;6683;48.506;9.050;2024-02-23T15:48:38;96191.53;;;12.47;50.38
13235;BME280;6683;48.506;9.050;2024-02-23T15:51:41;96184.88;;;12.45;50.46
13235;BME280;6683;48.506;9.050;2024-02-23T15:54:44;96184.53;;;12.41;50.60
13235;BME280;6683;48.506;9.050;2024-02-23T15:57:46;96190.09;;;12.40;50.65
13235;BME280;6683;48.506;9.050;2024-02-23T16:00:50;96182.66;;;12.37;50.51
13235;BME280;6683;48.506;9.050;2024-02-23T16:03:54;96190.06;;;12.35;50.44
13235;BME280;6683;48.506;9.050;2024-02-23T16:06:56;96187.06;;;12.31;50.18
13235;BME280;6683;48.506;9.050;2024-02-23T16:10:00;96184.13;;;12.28;50.40
13235;BME280;6683;48.506;9.050;2024-02-23T16:13:02;96187.81;;;12.27;50.70
13235;BME280;6683;48.506;9.050;2024-02-23T16:16:06;96182.47;;;12.22;50.74
13235;BME280;6683;48.506;9.050;2024-02-23T16:19:09;96184.56;;;12.20;50.61
13235;BME280;6683;48.506;9.050;2024-02-23T16:22:11;96180.81;;;12.16;50.66
13235;BME280;6683;48.506;9.050;2024-02-23T16:25:15;96171.78;;;12.12;50.61
13235;BME280;6683;48.506;9.050;2024-02-23T16:28:17;96175.44;;;12.11;50.48
13235;BME280;6683;48.506;9.050;2024-02-23T16:31:19;96186.53;;;12.08;50.68
13235;BME280;6683;48.506;9.050;2024-02-23T16:34:21;96183.81;;;12.02;50.58
13235;BME280;6683;48.506;9.050;2024-02-23T16:37:24;96177.41;;;11.98;50.43
13235;BME280;6683;48.506;9.050;2024-02-23T16:40:27;96184.22;;;11.94;50.35